page 4612 of 1010108 registered users

eBook PostsUsers

  1. 0jmamic registered @ 2012-11-26 02:34:28, last login @ 2012-11-26 02:34:28
  2. 0enemyswamp44 registered @ 2012-11-26 02:34:52, last login @ 2012-11-26 02:34:52
  3. 0curler65marble registered @ 2012-11-26 02:35:06, last login @ 2012-11-26 02:35:06
  4. 0edward5marble registered @ 2012-11-26 02:35:10, last login @ 2012-11-26 02:35:10
  5. 0ness04 registered @ 2012-11-26 02:35:26, last login @ 2012-11-26 02:35:46
  6. 0maracaparrot36 registered @ 2012-11-26 02:40:00, last login @ 2012-11-26 02:40:00
  7. 0rcla67 registered @ 2012-11-26 02:40:34, last login @ 2012-11-26 02:40:34
  8. 0vessel03vision registered @ 2012-11-26 02:41:00, last login @ 2012-11-26 02:41:00
  9. 0badgeconga3 registered @ 2012-11-26 02:43:00, last login @ 2012-11-26 02:43:00
  10. 0vqdnvdi78 registered @ 2012-11-26 02:44:45, last login @ 2012-11-26 02:44:45
  11. 0john13444 registered @ 2012-11-26 02:50:25, last login @ 2012-11-26 02:50:25
  12. 0RichardHPerez registered @ 2012-11-26 02:50:53, last login @ 2012-11-26 03:00:29
  13. 0driverfuel11 registered @ 2012-11-26 02:52:26, last login @ 2012-11-26 02:52:26
  14. 0StevenGBrewer registered @ 2012-11-26 02:53:07, last login @ 2012-11-26 02:53:07
  15. 0wool3rake registered @ 2012-11-26 02:56:31, last login @ 2012-11-26 02:56:31
  16. 0JosephGBrennan registered @ 2012-11-26 02:57:38, last login @ 2012-11-26 02:57:38
  17. 0cyanyangx registered @ 2012-11-26 02:57:40, last login @ 2012-11-26 02:57:40
  18. 0dress7dew registered @ 2012-11-26 03:02:23, last login @ 2012-11-26 03:02:23
  19. 0cxlmryccm registered @ 2012-11-26 03:03:08, last login @ 2012-11-26 03:03:08
  20. 0bridgefrog64 registered @ 2012-11-26 03:05:53, last login @ 2012-11-26 03:05:53
  21. 0oyster91niece registered @ 2012-11-26 03:06:19, last login @ 2012-11-26 03:06:19
  22. 0cry76neck registered @ 2012-11-26 03:06:33, last login @ 2012-11-26 03:39:42
  23. 0yachtjet5 registered @ 2012-11-26 03:06:47, last login @ 2012-11-26 03:06:47
  24. 0branch92fang registered @ 2012-11-26 03:08:27, last login @ 2012-11-26 03:08:27
  25. 0qassim_vet registered @ 2012-11-26 03:08:37, last login @ 2012-11-26 03:14:04
  26. 0scent1kenya registered @ 2012-11-26 03:09:31, last login @ 2012-11-26 03:09:31
  27. 0deeropen6 registered @ 2012-11-26 03:11:42, last login @ 2012-11-26 03:11:42
  28. 0linkbuilding6462 registered @ 2012-11-26 03:15:41, last login @ 2012-11-26 03:15:41
  29. 0cubmarble6 registered @ 2012-11-26 03:19:41, last login @ 2012-11-26 03:19:41
  30. 0slash91pen registered @ 2012-11-26 03:20:49, last login @ 2012-11-26 03:20:49
  31. 0witchdrive2 registered @ 2012-11-26 03:21:40, last login @ 2012-11-26 03:21:40
  32. 0grey1curler registered @ 2012-11-26 03:25:18, last login @ 2012-11-26 03:25:18
  33. 0micf89 registered @ 2012-11-26 03:25:58, last login @ 2012-11-26 03:25:58
  34. 0shortsjam0 registered @ 2012-11-26 03:27:37, last login @ 2012-11-26 03:27:37
  35. 0shaketime47 registered @ 2012-11-26 03:27:38, last login @ 2012-11-26 03:27:38
  36. 0JadedSkyz registered @ 2012-11-26 03:29:44, last login @ 2012-11-26 03:29:44
  37. 0familycent6 registered @ 2012-11-26 03:29:51, last login @ 2012-11-26 03:29:51
  38. 0tempo4cattle registered @ 2012-11-26 03:32:04, last login @ 2012-11-26 03:32:04
  39. 0pierock5 registered @ 2012-11-26 03:34:41, last login @ 2012-11-26 03:34:41
  40. 0shadebattle8 registered @ 2012-11-26 03:34:59, last login @ 2012-11-26 03:34:59
  41. 0trick58teeth registered @ 2012-11-26 03:37:34, last login @ 2012-11-26 03:37:34
  42. 0buttwork registered @ 2012-11-26 03:38:05, last login @ 2012-11-26 03:38:05
  43. 0laughdenim60 registered @ 2012-11-26 03:38:27, last login @ 2012-11-26 03:38:27
  44. 0lizardvalue49 registered @ 2012-11-26 03:40:35, last login @ 2012-11-26 03:40:35
  45. 0lunchbranch4 registered @ 2012-11-26 03:41:00, last login @ 2012-11-26 03:41:00
  46. 0rakevoice9 registered @ 2012-11-26 03:41:39, last login @ 2012-11-26 03:41:39
  47. 0nosemimosa3 registered @ 2012-11-26 03:44:12, last login @ 2012-11-26 03:44:12
  48. 0lynxrefund08 registered @ 2012-11-26 03:44:27, last login @ 2012-11-26 03:44:27
  49. 0crib31head registered @ 2012-11-26 03:46:11, last login @ 2012-11-26 03:46:11
  50. 0pantspound8 registered @ 2012-11-26 03:48:33, last login @ 2012-11-26 03:48:33
  51. 0beantime2 registered @ 2012-11-26 03:50:06, last login @ 2012-11-26 03:50:06
  52. 0hate82fowl registered @ 2012-11-26 03:53:10, last login @ 2012-11-26 03:53:10
  53. 0sheeplocust8 registered @ 2012-11-26 03:57:30, last login @ 2012-11-26 03:57:30
  54. 0mimosa8soil registered @ 2012-11-26 03:58:49, last login @ 2012-11-26 03:58:49
  55. 0manx2mom registered @ 2012-11-26 03:59:51, last login @ 2012-11-26 03:59:51
  56. 0slash5hoe registered @ 2012-11-26 04:00:37, last login @ 2012-11-26 04:00:37
  57. 0oboescene6 registered @ 2012-11-26 04:05:23, last login @ 2012-11-26 04:05:23
  58. 0felonyparrot06 registered @ 2012-11-26 04:09:19, last login @ 2012-11-26 04:53:55
  59. 0oviddeo registered @ 2012-11-26 04:09:30, last login @ 2012-11-26 04:09:30
  60. 0ball13clutch registered @ 2012-11-26 04:09:59, last login @ 2012-11-26 04:49:10
  61. 0court7fight registered @ 2012-11-26 04:10:52, last login @ 2012-11-26 04:10:52
  62. 0targetsquid11 registered @ 2012-11-26 04:10:56, last login @ 2012-11-26 04:58:03
  63. 0rod81linen registered @ 2012-11-26 04:11:01, last login @ 2012-11-26 04:49:21
  64. 0fat63viola registered @ 2012-11-26 04:12:03, last login @ 2012-11-26 04:12:03
  65. 0grapeguilty4 registered @ 2012-11-26 04:12:10, last login @ 2012-11-26 04:12:10
  66. 0judge61action registered @ 2012-11-26 04:13:52, last login @ 2012-11-26 04:13:52
  67. 0sneezebowl1 registered @ 2012-11-26 04:16:36, last login @ 2012-11-26 04:36:08
  68. 0dime82beam registered @ 2012-11-26 04:17:30, last login @ 2012-11-26 04:17:30
  69. 0swim51kitty registered @ 2012-11-26 04:19:30, last login @ 2012-11-26 04:19:30
  70. 0kiana7822 registered @ 2012-11-26 04:20:44, last login @ 2012-11-26 04:23:56
  71. 0markeel36 registered @ 2012-11-26 04:20:52, last login @ 2012-11-26 04:20:52
  72. 0hatchalk9 registered @ 2012-11-26 04:22:53, last login @ 2012-11-26 04:22:53
  73. 0tellerbook72 registered @ 2012-11-26 04:23:04, last login @ 2012-11-26 04:23:04
  74. 0womanbase4 registered @ 2012-11-26 04:24:02, last login @ 2012-11-26 04:24:02
  75. 0child71shrine registered @ 2012-11-26 04:24:16, last login @ 2012-11-26 04:24:16
  76. 0ferry0sword registered @ 2012-11-26 04:24:31, last login @ 2012-11-26 04:24:31
  77. 0cause0month registered @ 2012-11-26 04:24:54, last login @ 2012-11-26 04:24:54
  78. 0ball6string registered @ 2012-11-26 04:27:30, last login @ 2012-11-26 04:27:30
  79. 0greekrotate9 registered @ 2012-11-26 04:27:32, last login @ 2012-11-26 04:27:32
  80. 0clientlocust3 registered @ 2012-11-26 04:28:32, last login @ 2012-11-26 04:28:32
  81. 0subwayknight7 registered @ 2012-11-26 04:30:08, last login @ 2012-11-26 04:30:08
  82. 0seoexpert661 registered @ 2012-11-26 04:36:40, last login @ 2012-11-26 04:36:40
  83. 0store4star registered @ 2012-11-26 04:37:51, last login @ 2012-11-26 04:37:51
  84. 0threadrubber8 registered @ 2012-11-26 04:39:35, last login @ 2012-11-26 04:39:35
  85. 0van7tower registered @ 2012-11-26 04:40:56, last login @ 2012-11-26 04:40:56
  86. 0coffee53beret registered @ 2012-11-26 04:41:57, last login @ 2012-11-26 04:41:57
  87. 0soilheron26 registered @ 2012-11-26 04:42:48, last login @ 2012-11-26 04:42:48
  88. 0parrot51frown registered @ 2012-11-26 04:45:20, last login @ 2012-11-26 04:45:20
  89. 0shelfreport21 registered @ 2012-11-26 04:45:29, last login @ 2012-11-26 04:45:29
  90. 0dance1bell registered @ 2012-11-26 04:46:36, last login @ 2012-11-26 04:46:36
  91. 0dogmainia2012 registered @ 2012-11-26 04:49:51, last login @ 2012-11-26 04:49:51
  92. 0salmoninput04 registered @ 2012-11-26 04:50:46, last login @ 2012-11-26 04:50:46
  93. 0beetleshield70 registered @ 2012-11-26 04:52:23, last login @ 2012-11-26 04:52:23
  94. 0kickcar1 registered @ 2012-11-26 04:56:58, last login @ 2012-11-26 04:56:58
  95. 0claus95insect registered @ 2012-11-26 04:57:06, last login @ 2012-11-26 04:57:06
  96. 0frorierfugs registered @ 2012-11-26 04:57:06, last login @ 2012-11-26 04:57:06
  97. 0layer1bronze registered @ 2012-11-26 04:58:21, last login @ 2012-11-26 04:58:21
  98. 0chairpotato61 registered @ 2012-11-26 05:00:24, last login @ 2012-11-26 05:00:24
  99. 0palm5pantry registered @ 2012-11-26 05:02:36, last login @ 2012-11-26 05:02:36
  100. 0road04john registered @ 2012-11-26 05:04:18, last login @ 2012-11-26 05:04:18
  101. 0cannonturn2 registered @ 2012-11-26 05:04:36, last login @ 2012-11-26 05:56:26

More...

[4622] [4621] [4620] [4619] [4618] [4617] [4616] [4615] [4614] [4613] [4612] [4611] [4610] [4609] [4608] [4607] [4606] [4605] [4604] [4603] ...[1]
Back to Top